sensor_id;sensor_type;location;lat;lon;timestamp;P1;durP1;ratioP1;P2;durP2;ratioP2
51374;SDS011;37465;52.738;4.752;2023-01-04T00:00:08;7.28;;;5.35;;
51374;SDS011;37465;52.738;4.752;2023-01-04T00:02:37;5.97;;;5.30;;
51374;SDS011;37465;52.738;4.752;2023-01-04T00:05:05;7.05;;;4.85;;
51374;SDS011;37465;52.738;4.752;2023-01-04T00:07:33;8.43;;;5.63;;
51374;SDS011;37465;52.738;4.752;2023-01-04T00:10:00;7.72;;;5.13;;
51374;SDS011;37465;52.738;4.752;2023-01-04T00:12:28;8.82;;;5.10;;
51374;SDS011;37465;52.738;4.752;2023-01-04T00:14:56;6.60;;;4.93;;
51374;SDS011;37465;52.738;4.752;2023-01-04T00:17:25;6.88;;;5.10;;
51374;SDS011;37465;52.738;4.752;2023-01-04T00:19:52;7.65;;;4.72;;
51374;SDS011;37465;52.738;4.752;2023-01-04T00:22:20;7.95;;;4.85;;
51374;SDS011;37465;52.738;4.752;2023-01-04T00:24:48;8.80;;;4.70;;
51374;SDS011;37465;52.738;4.752;2023-01-04T00:27:15;6.65;;;4.30;;
51374;SDS011;37465;52.738;4.752;2023-01-04T00:29:43;6.78;;;4.25;;
51374;SDS011;37465;52.738;4.752;2023-01-04T00:32:10;5.47;;;3.63;;
51374;SDS011;37465;52.738;4.752;2023-01-04T00:34:39;4.43;;;2.75;;
51374;SDS011;37465;52.738;4.752;2023-01-04T00:37:07;4.10;;;2.80;;
51374;SDS011;37465;52.738;4.752;2023-01-04T00:39:34;5.78;;;3.13;;
51374;SDS011;37465;52.738;4.752;2023-01-04T00:42:02;6.78;;;3.83;;
51374;SDS011;37465;52.738;4.752;2023-01-04T00:44:31;6.90;;;4.47;;
51374;SDS011;37465;52.738;4.752;2023-01-04T00:47:01;6.47;;;3.20;;
51374;SDS011;37465;52.738;4.752;2023-01-04T00:49:29;4.93;;;3.13;;
51374;SDS011;37465;52.738;4.752;2023-01-04T00:51:58;6.53;;;3.53;;
51374;SDS011;37465;52.738;4.752;2023-01-04T00:54:26;5.85;;;3.33;;
51374;SDS011;37465;52.738;4.752;2023-01-04T00:56:54;6.35;;;3.60;;
51374;SDS011;37465;52.738;4.752;2023-01-04T00:59:22;9.90;;;3.97;;
51374;SDS011;37465;52.738;4.752;2023-01-04T01:01:49;8.10;;;3.60;;
51374;SDS011;37465;52.738;4.752;2023-01-04T01:04:19;6.85;;;3.60;;
51374;SDS011;37465;52.738;4.752;2023-01-04T01:06:48;7.82;;;3.63;;
51374;SDS011;37465;52.738;4.752;2023-01-04T01:09:17;8.10;;;3.95;;
51374;SDS011;37465;52.738;4.752;2023-01-04T01:11:48;13.25;;;3.60;;
51374;SDS011;37465;52.738;4.752;2023-01-04T01:14:16;14.15;;;4.32;;
51374;SDS011;37465;52.738;4.752;2023-01-04T01:19:23;5.65;;;3.35;;
51374;SDS011;37465;52.738;4.752;2023-01-04T01:21:51;12.07;;;4.47;;
51374;SDS011;37465;52.738;4.752;2023-01-04T01:24:20;15.02;;;5.47;;
51374;SDS011;37465;52.738;4.752;2023-01-04T01:26:47;18.38;;;4.78;;
51374;SDS011;37465;52.738;4.752;2023-01-04T01:29:15;11.30;;;5.55;;
51374;SDS011;37465;52.738;4.752;2023-01-04T01:31:43;13.20;;;5.32;;
51374;SDS011;37465;52.738;4.752;2023-01-04T01:34:10;15.02;;;5.60;;
51374;SDS011;37465;52.738;4.752;2023-01-04T01:36:38;12.98;;;5.22;;
51374;SDS011;37465;52.738;4.752;2023-01-04T01:39:06;15.93;;;5.15;;
51374;SDS011;37465;52.738;4.752;2023-01-04T01:41:34;13.13;;;4.90;;
51374;SDS011;37465;52.738;4.752;2023-01-04T01:44:03;16.38;;;5.05;;
51374;SDS011;37465;52.738;4.752;2023-01-04T01:46:33;17.05;;;4.75;;
51374;SDS011;37465;52.738;4.752;2023-01-04T01:49:04;18.48;;;4.82;;
51374;SDS011;37465;52.738;4.752;2023-01-04T01:51:35;15.20;;;4.50;;
51374;SDS011;37465;52.738;4.752;2023-01-04T01:54:06;20.08;;;5.50;;
51374;SDS011;37465;52.738;4.752;2023-01-04T01:56:37;16.17;;;5.60;;
51374;SDS011;37465;52.738;4.752;2023-01-04T01:59:06;19.02;;;5.03;;
51374;SDS011;37465;52.738;4.752;2023-01-04T02:01:34;20.93;;;5.83;;
51374;SDS011;37465;52.738;4.752;2023-01-04T02:04:03;21.77;;;6.32;;
51374;SDS011;37465;52.738;4.752;2023-01-04T02:06:31;24.17;;;6.07;;
51374;SDS011;37465;52.738;4.752;2023-01-04T02:09:01;21.77;;;6.20;;
51374;SDS011;37465;52.738;4.752;2023-01-04T02:11:29;29.65;;;7.25;;
51374;SDS011;37465;52.738;4.752;2023-01-04T02:13:58;27.67;;;7.57;;
51374;SDS011;37465;52.738;4.752;2023-01-04T02:16:48;24.73;;;7.70;;
51374;SDS011;37465;52.738;4.752;2023-01-04T02:22:38;31.55;;;8.38;;
51374;SDS011;37465;52.738;4.752;2023-01-04T02:25:22;29.83;;;8.88;;
51374;SDS011;37465;52.738;4.752;2023-01-04T02:27:56;29.85;;;9.07;;
51374;SDS011;37465;52.738;4.752;2023-01-04T02:33:35;36.42;;;9.98;;
51374;SDS011;37465;52.738;4.752;2023-01-04T02:36:09;33.03;;;8.60;;
51374;SDS011;37465;52.738;4.752;2023-01-04T02:38:46;32.63;;;9.27;;
51374;SDS011;37465;52.738;4.752;2023-01-04T02:41:17;42.67;;;10.13;;
51374;SDS011;37465;52.738;4.752;2023-01-04T02:43:52;43.83;;;10.35;;
51374;SDS011;37465;52.738;4.752;2023-01-04T02:46:40;40.28;;;10.70;;
51374;SDS011;37465;52.738;4.752;2023-01-04T02:49:12;39.58;;;9.65;;
51374;SDS011;37465;52.738;4.752;2023-01-04T02:51:58;38.85;;;8.55;;
51374;SDS011;37465;52.738;4.752;2023-01-04T02:54:26;42.70;;;10.02;;
51374;SDS011;37465;52.738;4.752;2023-01-04T02:57:06;32.45;;;8.73;;
51374;SDS011;37465;52.738;4.752;2023-01-04T02:59:49;38.75;;;9.93;;
51374;SDS011;37465;52.738;4.752;2023-01-04T03:02:31;35.10;;;8.88;;
51374;SDS011;37465;52.738;4.752;2023-01-04T03:05:28;33.05;;;7.90;;
51374;SDS011;37465;52.738;4.752;2023-01-04T03:08:20;32.88;;;7.95;;
51374;SDS011;37465;52.738;4.752;2023-01-04T03:10:54;30.90;;;7.75;;
51374;SDS011;37465;52.738;4.752;2023-01-04T03:13:26;35.08;;;7.80;;
51374;SDS011;37465;52.738;4.752;2023-01-04T03:15:57;34.42;;;8.48;;
51374;SDS011;37465;52.738;4.752;2023-01-04T03:18:28;37.08;;;8.05;;
51374;SDS011;37465;52.738;4.752;2023-01-04T03:23:26;38.17;;;6.68;;
51374;SDS011;37465;52.738;4.752;2023-01-04T03:26:16;34.00;;;7.07;;
51374;SDS011;37465;52.738;4.752;2023-01-04T03:29:04;33.63;;;5.85;;
51374;SDS011;37465;52.738;4.752;2023-01-04T03:31:53;34.83;;;7.13;;
51374;SDS011;37465;52.738;4.752;2023-01-04T03:34:40;36.33;;;7.22;;
51374;SDS011;37465;52.738;4.752;2023-01-04T03:37:30;33.28;;;6.63;;
51374;SDS011;37465;52.738;4.752;2023-01-04T03:40:03;41.00;;;6.47;;
51374;SDS011;37465;52.738;4.752;2023-01-04T03:42:57;28.52;;;6.63;;
51374;SDS011;37465;52.738;4.752;2023-01-04T03:45:46;35.25;;;8.10;;
51374;SDS011;37465;52.738;4.752;2023-01-04T03:48:35;42.83;;;9.00;;
51374;SDS011;37465;52.738;4.752;2023-01-04T03:51:07;40.15;;;8.68;;
51374;SDS011;37465;52.738;4.752;2023-01-04T03:53:46;31.00;;;8.60;;
51374;SDS011;37465;52.738;4.752;2023-01-04T03:56:20;34.20;;;7.93;;
51374;SDS011;37465;52.738;4.752;2023-01-04T14:45:39;31.30;;;5.38;;
51374;SDS011;37465;52.738;4.752;2023-01-04T14:48:07;29.52;;;5.45;;
51374;SDS011;37465;52.738;4.752;2023-01-04T14:50:36;28.25;;;4.60;;
51374;SDS011;37465;52.738;4.752;2023-01-04T14:53:04;33.97;;;5.10;;
51374;SDS011;37465;52.738;4.752;2023-01-04T14:55:31;32.08;;;5.80;;
51374;SDS011;37465;52.738;4.752;2023-01-04T14:57:59;25.95;;;5.45;;
51374;SDS011;37465;52.738;4.752;2023-01-04T15:00:26;28.30;;;4.68;;
51374;SDS011;37465;52.738;4.752;2023-01-04T15:02:55;32.33;;;5.53;;
51374;SDS011;37465;52.738;4.752;2023-01-04T15:05:24;32.80;;;6.05;;
51374;SDS011;37465;52.738;4.752;2023-01-04T15:07:51;29.95;;;5.75;;
51374;SDS011;37465;52.738;4.752;2023-01-04T15:10:20;29.38;;;4.72;;
51374;SDS011;37465;52.738;4.752;2023-01-04T15:12:48;28.08;;;5.55;;
51374;SDS011;37465;52.738;4.752;2023-01-04T15:15:16;37.15;;;5.55;;
51374;SDS011;37465;52.738;4.752;2023-01-04T15:17:44;30.30;;;5.35;;
51374;SDS011;37465;52.738;4.752;2023-01-04T15:20:13;22.70;;;4.65;;
51374;SDS011;37465;52.738;4.752;2023-01-04T15:22:41;30.02;;;5.43;;
51374;SDS011;37465;52.738;4.752;2023-01-04T15:25:09;35.72;;;6.25;;
51374;SDS011;37465;52.738;4.752;2023-01-04T15:27:37;27.02;;;4.80;;
51374;SDS011;37465;52.738;4.752;2023-01-04T15:30:08;26.00;;;5.15;;
51374;SDS011;37465;52.738;4.752;2023-01-04T15:32:36;35.13;;;5.72;;
51374;SDS011;37465;52.738;4.752;2023-01-04T15:35:04;32.20;;;5.10;;
51374;SDS011;37465;52.738;4.752;2023-01-04T15:37:34;31.10;;;4.93;;
51374;SDS011;37465;52.738;4.752;2023-01-04T15:40:02;41.72;;;6.60;;
51374;SDS011;37465;52.738;4.752;2023-01-04T15:42:30;29.02;;;5.57;;
51374;SDS011;37465;52.738;4.752;2023-01-04T15:45:15;22.65;;;4.97;;
51374;SDS011;37465;52.738;4.752;2023-01-04T15:47:43;35.78;;;5.70;;
51374;SDS011;37465;52.738;4.752;2023-01-04T15:50:10;22.70;;;5.28;;
51374;SDS011;37465;52.738;4.752;2023-01-04T15:52:39;33.10;;;6.15;;
51374;SDS011;37465;52.738;4.752;2023-01-04T15:55:07;31.25;;;5.30;;
51374;SDS011;37465;52.738;4.752;2023-01-04T15:57:35;32.25;;;6.65;;
51374;SDS011;37465;52.738;4.752;2023-01-04T16:00:10;24.40;;;5.60;;
51374;SDS011;37465;52.738;4.752;2023-01-04T16:02:38;28.37;;;4.90;;
51374;SDS011;37465;52.738;4.752;2023-01-04T16:05:06;31.30;;;5.50;;
51374;SDS011;37465;52.738;4.752;2023-01-04T16:07:34;31.02;;;6.85;;
51374;SDS011;37465;52.738;4.752;2023-01-04T16:10:04;35.05;;;6.63;;
51374;SDS011;37465;52.738;4.752;2023-01-04T16:12:32;30.77;;;6.38;;
51374;SDS011;37465;52.738;4.752;2023-01-04T16:15:10;25.92;;;5.38;;
51374;SDS011;37465;52.738;4.752;2023-01-04T16:17:39;31.92;;;6.45;;
51374;SDS011;37465;52.738;4.752;2023-01-04T16:20:07;32.30;;;5.93;;
51374;SDS011;37465;52.738;4.752;2023-01-04T16:22:36;28.23;;;4.80;;
51374;SDS011;37465;52.738;4.752;2023-01-04T16:25:06;30.40;;;5.28;;
51374;SDS011;37465;52.738;4.752;2023-01-04T16:27:39;38.80;;;6.60;;
51374;SDS011;37465;52.738;4.752;2023-01-04T16:30:07;40.10;;;5.60;;
51374;SDS011;37465;52.738;4.752;2023-01-04T16:32:39;34.30;;;5.57;;
51374;SDS011;37465;52.738;4.752;2023-01-04T16:35:07;31.87;;;7.27;;
51374;SDS011;37465;52.738;4.752;2023-01-04T16:37:36;33.35;;;6.55;;
51374;SDS011;37465;52.738;4.752;2023-01-04T16:40:04;36.70;;;6.40;;
51374;SDS011;37465;52.738;4.752;2023-01-04T16:42:35;40.20;;;7.05;;
51374;SDS011;37465;52.738;4.752;2023-01-04T16:45:03;36.08;;;6.28;;
51374;SDS011;37465;52.738;4.752;2023-01-04T16:47:36;34.72;;;7.30;;
51374;SDS011;37465;52.738;4.752;2023-01-04T16:50:04;43.55;;;7.80;;
51374;SDS011;37465;52.738;4.752;2023-01-04T16:52:33;33.53;;;6.35;;
51374;SDS011;37465;52.738;4.752;2023-01-04T16:55:00;35.90;;;6.55;;
51374;SDS011;37465;52.738;4.752;2023-01-04T16:57:29;38.13;;;6.93;;
51374;SDS011;37465;52.738;4.752;2023-01-04T16:59:57;40.28;;;6.75;;
51374;SDS011;37465;52.738;4.752;2023-01-04T17:02:24;33.65;;;6.35;;
51374;SDS011;37465;52.738;4.752;2023-01-04T17:04:52;36.38;;;7.43;;
51374;SDS011;37465;52.738;4.752;2023-01-04T17:07:24;41.42;;;7.45;;
51374;SDS011;37465;52.738;4.752;2023-01-04T17:09:57;35.92;;;6.32;;
51374;SDS011;37465;52.738;4.752;2023-01-04T17:12:26;37.75;;;6.60;;
51374;SDS011;37465;52.738;4.752;2023-01-04T17:15:15;39.90;;;5.85;;
51374;SDS011;37465;52.738;4.752;2023-01-04T17:18:03;31.60;;;5.70;;
51374;SDS011;37465;52.738;4.752;2023-01-04T17:20:30;39.28;;;7.25;;
51374;SDS011;37465;52.738;4.752;2023-01-04T17:22:58;32.28;;;6.90;;
51374;SDS011;37465;52.738;4.752;2023-01-04T17:25:26;36.95;;;7.13;;
51374;SDS011;37465;52.738;4.752;2023-01-04T17:27:53;40.58;;;7.40;;
51374;SDS011;37465;52.738;4.752;2023-01-04T17:30:22;41.55;;;7.40;;
51374;SDS011;37465;52.738;4.752;2023-01-04T17:32:50;40.65;;;8.05;;
51374;SDS011;37465;52.738;4.752;2023-01-04T17:35:18;36.42;;;7.00;;
51374;SDS011;37465;52.738;4.752;2023-01-04T17:37:45;26.65;;;5.20;;
51374;SDS011;37465;52.738;4.752;2023-01-04T17:40:13;38.25;;;7.10;;
51374;SDS011;37465;52.738;4.752;2023-01-04T17:42:48;33.65;;;5.78;;
51374;SDS011;37465;52.738;4.752;2023-01-04T17:45:15;37.42;;;6.88;;
51374;SDS011;37465;52.738;4.752;2023-01-04T17:47:44;36.20;;;6.15;;
51374;SDS011;37465;52.738;4.752;2023-01-04T17:50:12;30.95;;;5.95;;
51374;SDS011;37465;52.738;4.752;2023-01-04T17:52:41;35.28;;;6.28;;
51374;SDS011;37465;52.738;4.752;2023-01-04T17:55:08;39.10;;;6.78;;
51374;SDS011;37465;52.738;4.752;2023-01-04T17:57:36;28.35;;;6.00;;
51374;SDS011;37465;52.738;4.752;2023-01-04T18:00:04;31.75;;;5.93;;
51374;SDS011;37465;52.738;4.752;2023-01-04T18:02:32;28.75;;;5.57;;
51374;SDS011;37465;52.738;4.752;2023-01-04T18:05:02;26.40;;;6.07;;
51374;SDS011;37465;52.738;4.752;2023-01-04T18:07:31;30.20;;;6.28;;
51374;SDS011;37465;52.738;4.752;2023-01-04T18:09:59;32.45;;;6.55;;
51374;SDS011;37465;52.738;4.752;2023-01-04T18:12:27;40.38;;;6.32;;
51374;SDS011;37465;52.738;4.752;2023-01-04T18:14:55;34.63;;;5.95;;
51374;SDS011;37465;52.738;4.752;2023-01-04T18:17:23;30.30;;;5.75;;
51374;SDS011;37465;52.738;4.752;2023-01-04T18:19:51;36.05;;;7.40;;
51374;SDS011;37465;52.738;4.752;2023-01-04T18:22:20;35.35;;;6.40;;
51374;SDS011;37465;52.738;4.752;2023-01-04T18:24:47;43.28;;;7.47;;
51374;SDS011;37465;52.738;4.752;2023-01-04T18:27:15;46.03;;;8.05;;
51374;SDS011;37465;52.738;4.752;2023-01-04T18:29:51;38.65;;;6.60;;
51374;SDS011;37465;52.738;4.752;2023-01-04T18:32:20;41.00;;;6.40;;
51374;SDS011;37465;52.738;4.752;2023-01-04T18:34:48;28.45;;;5.70;;
51374;SDS011;37465;52.738;4.752;2023-01-04T18:37:15;41.17;;;7.72;;
51374;SDS011;37465;52.738;4.752;2023-01-04T18:39:45;37.28;;;6.85;;
51374;SDS011;37465;52.738;4.752;2023-01-04T18:42:13;39.47;;;6.70;;
51374;SDS011;37465;52.738;4.752;2023-01-04T18:44:41;35.97;;;6.32;;
51374;SDS011;37465;52.738;4.752;2023-01-04T18:47:14;31.98;;;5.80;;
51374;SDS011;37465;52.738;4.752;2023-01-04T18:49:42;32.97;;;5.63;;
51374;SDS011;37465;52.738;4.752;2023-01-04T18:52:10;41.83;;;7.30;;
51374;SDS011;37465;52.738;4.752;2023-01-04T18:54:37;43.60;;;8.48;;
51374;SDS011;37465;52.738;4.752;2023-01-04T18:57:06;42.72;;;7.05;;
51374;SDS011;37465;52.738;4.752;2023-01-04T18:59:34;38.60;;;7.15;;
51374;SDS011;37465;52.738;4.752;2023-01-04T19:02:02;40.22;;;7.05;;
51374;SDS011;37465;52.738;4.752;2023-01-04T19:04:30;41.00;;;7.50;;
51374;SDS011;37465;52.738;4.752;2023-01-04T19:06:59;34.95;;;6.63;;
51374;SDS011;37465;52.738;4.752;2023-01-04T19:09:27;45.17;;;6.65;;
51374;SDS011;37465;52.738;4.752;2023-01-04T19:11:55;42.45;;;6.45;;
51374;SDS011;37465;52.738;4.752;2023-01-04T19:14:24;37.70;;;6.03;;
51374;SDS011;37465;52.738;4.752;2023-01-04T19:16:51;41.50;;;6.65;;
51374;SDS011;37465;52.738;4.752;2023-01-04T19:19:19;41.10;;;6.65;;
51374;SDS011;37465;52.738;4.752;2023-01-04T19:21:47;46.55;;;8.00;;
51374;SDS011;37465;52.738;4.752;2023-01-04T19:24:14;36.13;;;7.50;;
51374;SDS011;37465;52.738;4.752;2023-01-04T19:26:42;46.80;;;7.65;;
51374;SDS011;37465;52.738;4.752;2023-01-04T19:29:10;40.00;;;7.20;;
51374;SDS011;37465;52.738;4.752;2023-01-04T19:31:39;41.97;;;7.93;;
51374;SDS011;37465;52.738;4.752;2023-01-04T19:34:07;39.47;;;7.03;;
51374;SDS011;37465;52.738;4.752;2023-01-04T19:36:35;34.28;;;6.40;;
51374;SDS011;37465;52.738;4.752;2023-01-04T19:39:03;38.08;;;6.57;;
51374;SDS011;37465;52.738;4.752;2023-01-04T19:41:34;38.72;;;5.00;;
51374;SDS011;37465;52.738;4.752;2023-01-04T19:44:03;38.17;;;6.57;;
51374;SDS011;37465;52.738;4.752;2023-01-04T19:46:32;34.38;;;6.30;;
51374;SDS011;37465;52.738;4.752;2023-01-04T19:49:01;37.20;;;6.05;;
51374;SDS011;37465;52.738;4.752;2023-01-04T19:51:30;31.70;;;5.97;;
51374;SDS011;37465;52.738;4.752;2023-01-04T19:53:57;38.92;;;6.30;;
51374;SDS011;37465;52.738;4.752;2023-01-04T19:56:25;39.13;;;6.25;;
51374;SDS011;37465;52.738;4.752;2023-01-04T19:58:53;39.35;;;6.72;;
51374;SDS011;37465;52.738;4.752;2023-01-04T20:01:21;39.53;;;5.95;;
51374;SDS011;37465;52.738;4.752;2023-01-04T20:03:49;40.20;;;6.63;;
51374;SDS011;37465;52.738;4.752;2023-01-04T20:06:18;27.92;;;5.78;;
51374;SDS011;37465;52.738;4.752;2023-01-04T20:08:46;30.92;;;5.50;;
51374;SDS011;37465;52.738;4.752;2023-01-04T20:11:14;44.35;;;7.30;;
51374;SDS011;37465;52.738;4.752;2023-01-04T20:13:41;42.15;;;6.82;;
51374;SDS011;37465;52.738;4.752;2023-01-04T20:16:09;38.80;;;6.90;;
51374;SDS011;37465;52.738;4.752;2023-01-04T20:18:37;34.95;;;6.90;;
51374;SDS011;37465;52.738;4.752;2023-01-04T20:21:06;38.78;;;7.38;;
51374;SDS011;37465;52.738;4.752;2023-01-04T20:23:37;38.22;;;6.95;;
51374;SDS011;37465;52.738;4.752;2023-01-04T20:26:05;40.63;;;6.70;;
51374;SDS011;37465;52.738;4.752;2023-01-04T20:28:36;42.85;;;7.40;;
51374;SDS011;37465;52.738;4.752;2023-01-04T20:31:06;42.05;;;6.65;;
51374;SDS011;37465;52.738;4.752;2023-01-04T20:33:35;29.35;;;5.80;;
51374;SDS011;37465;52.738;4.752;2023-01-04T20:36:03;33.92;;;6.00;;
51374;SDS011;37465;52.738;4.752;2023-01-04T20:41:07;28.58;;;5.88;;
51374;SDS011;37465;52.738;4.752;2023-01-04T20:43:35;37.55;;;6.85;;
51374;SDS011;37465;52.738;4.752;2023-01-04T20:46:02;30.98;;;6.03;;
51374;SDS011;37465;52.738;4.752;2023-01-04T20:48:31;41.53;;;6.63;;
51374;SDS011;37465;52.738;4.752;2023-01-04T20:51:03;40.47;;;7.47;;
51374;SDS011;37465;52.738;4.752;2023-01-04T20:53:31;30.70;;;6.18;;
51374;SDS011;37465;52.738;4.752;2023-01-04T20:56:05;32.25;;;5.90;;
51374;SDS011;37465;52.738;4.752;2023-01-04T20:58:35;35.70;;;7.18;;
51374;SDS011;37465;52.738;4.752;2023-01-04T21:01:03;37.72;;;6.88;;
51374;SDS011;37465;52.738;4.752;2023-01-04T21:03:32;33.63;;;6.18;;
51374;SDS011;37465;52.738;4.752;2023-01-04T21:06:00;33.72;;;5.75;;
51374;SDS011;37465;52.738;4.752;2023-01-04T21:08:29;45.88;;;7.10;;
51374;SDS011;37465;52.738;4.752;2023-01-04T21:10:57;32.70;;;5.57;;
51374;SDS011;37465;52.738;4.752;2023-01-04T21:13:26;33.58;;;5.80;;
51374;SDS011;37465;52.738;4.752;2023-01-04T21:15:54;33.70;;;6.68;;
51374;SDS011;37465;52.738;4.752;2023-01-04T21:18:22;30.25;;;7.35;;
51374;SDS011;37465;52.738;4.752;2023-01-04T21:20:50;39.60;;;6.75;;
51374;SDS011;37465;52.738;4.752;2023-01-04T21:23:20;38.60;;;6.40;;
51374;SDS011;37465;52.738;4.752;2023-01-04T21:25:48;35.10;;;7.38;;
51374;SDS011;37465;52.738;4.752;2023-01-04T21:28:17;31.38;;;5.53;;
51374;SDS011;37465;52.738;4.752;2023-01-04T21:30:48;33.45;;;6.75;;
51374;SDS011;37465;52.738;4.752;2023-01-04T21:33:16;42.33;;;7.15;;
51374;SDS011;37465;52.738;4.752;2023-01-04T21:35:43;35.25;;;6.50;;
51374;SDS011;37465;52.738;4.752;2023-01-04T21:38:11;35.55;;;6.32;;
51374;SDS011;37465;52.738;4.752;2023-01-04T21:40:39;27.90;;;5.93;;
51374;SDS011;37465;52.738;4.752;2023-01-04T21:43:10;32.00;;;5.40;;
51374;SDS011;37465;52.738;4.752;2023-01-04T21:45:40;37.13;;;6.03;;
51374;SDS011;37465;52.738;4.752;2023-01-04T21:48:10;39.85;;;6.28;;
51374;SDS011;37465;52.738;4.752;2023-01-04T21:50:37;30.30;;;4.63;;
51374;SDS011;37465;52.738;4.752;2023-01-04T21:53:05;32.05;;;5.95;;
51374;SDS011;37465;52.738;4.752;2023-01-04T21:55:33;33.97;;;5.47;;
51374;SDS011;37465;52.738;4.752;2023-01-04T21:58:00;37.97;;;7.43;;
51374;SDS011;37465;52.738;4.752;2023-01-04T22:00:28;33.67;;;6.25;;
51374;SDS011;37465;52.738;4.752;2023-01-04T22:02:56;37.90;;;6.65;;
51374;SDS011;37465;52.738;4.752;2023-01-04T22:05:25;44.78;;;7.00;;
51374;SDS011;37465;52.738;4.752;2023-01-04T22:07:53;29.98;;;6.57;;
51374;SDS011;37465;52.738;4.752;2023-01-04T22:10:20;30.50;;;6.18;;
51374;SDS011;37465;52.738;4.752;2023-01-04T22:12:48;27.63;;;5.43;;
51374;SDS011;37465;52.738;4.752;2023-01-04T22:15:15;29.92;;;5.43;;
51374;SDS011;37465;52.738;4.752;2023-01-04T22:17:43;32.28;;;5.20;;
51374;SDS011;37465;52.738;4.752;2023-01-04T22:20:11;31.05;;;5.40;;
51374;SDS011;37465;52.738;4.752;2023-01-04T22:22:40;24.38;;;4.97;;
51374;SDS011;37465;52.738;4.752;2023-01-04T22:25:08;36.08;;;6.00;;
51374;SDS011;37465;52.738;4.752;2023-01-04T22:27:36;31.17;;;5.10;;
51374;SDS011;37465;52.738;4.752;2023-01-04T22:30:04;30.38;;;5.45;;
51374;SDS011;37465;52.738;4.752;2023-01-04T22:32:32;27.67;;;5.47;;
51374;SDS011;37465;52.738;4.752;2023-01-04T22:35:00;31.30;;;5.82;;
51374;SDS011;37465;52.738;4.752;2023-01-04T22:37:27;28.38;;;5.18;;
51374;SDS011;37465;52.738;4.752;2023-01-04T22:39:56;30.60;;;5.57;;
51374;SDS011;37465;52.738;4.752;2023-01-04T22:42:24;28.15;;;5.22;;
51374;SDS011;37465;52.738;4.752;2023-01-04T22:44:52;29.92;;;6.20;;
51374;SDS011;37465;52.738;4.752;2023-01-04T22:47:19;33.22;;;5.25;;
51374;SDS011;37465;52.738;4.752;2023-01-04T22:49:47;31.15;;;5.80;;
51374;SDS011;37465;52.738;4.752;2023-01-04T22:52:15;29.17;;;5.70;;
51374;SDS011;37465;52.738;4.752;2023-01-04T22:54:42;34.55;;;6.43;;
51374;SDS011;37465;52.738;4.752;2023-01-04T22:57:11;33.97;;;6.15;;
51374;SDS011;37465;52.738;4.752;2023-01-04T22:59:39;37.50;;;6.72;;
51374;SDS011;37465;52.738;4.752;2023-01-04T23:02:06;35.15;;;6.35;;
51374;SDS011;37465;52.738;4.752;2023-01-04T23:04:34;29.80;;;6.25;;
51374;SDS011;37465;52.738;4.752;2023-01-04T23:07:02;35.28;;;5.75;;
51374;SDS011;37465;52.738;4.752;2023-01-04T23:09:29;35.88;;;6.15;;
51374;SDS011;37465;52.738;4.752;2023-01-04T23:11:57;37.10;;;7.00;;
51374;SDS011;37465;52.738;4.752;2023-01-04T23:14:26;35.58;;;6.07;;
51374;SDS011;37465;52.738;4.752;2023-01-04T23:16:53;38.45;;;5.38;;
51374;SDS011;37465;52.738;4.752;2023-01-04T23:19:21;31.88;;;5.90;;
51374;SDS011;37465;52.738;4.752;2023-01-04T23:21:49;28.95;;;5.63;;
51374;SDS011;37465;52.738;4.752;2023-01-04T23:24:16;38.90;;;6.95;;
51374;SDS011;37465;52.738;4.752;2023-01-04T23:26:44;37.08;;;6.22;;
51374;SDS011;37465;52.738;4.752;2023-01-04T23:29:12;31.27;;;6.68;;
51374;SDS011;37465;52.738;4.752;2023-01-04T23:31:41;38.35;;;7.15;;
51374;SDS011;37465;52.738;4.752;2023-01-04T23:34:09;37.40;;;6.32;;
51374;SDS011;37465;52.738;4.752;2023-01-04T23:36:38;33.65;;;6.20;;
51374;SDS011;37465;52.738;4.752;2023-01-04T23:39:09;32.65;;;6.55;;
51374;SDS011;37465;52.738;4.752;2023-01-04T23:41:38;32.13;;;6.38;;
51374;SDS011;37465;52.738;4.752;2023-01-04T23:44:14;35.90;;;5.97;;
51374;SDS011;37465;52.738;4.752;2023-01-04T23:46:44;32.03;;;7.13;;
51374;SDS011;37465;52.738;4.752;2023-01-04T23:51:40;35.28;;;6.28;;
51374;SDS011;37465;52.738;4.752;2023-01-04T23:54:08;35.55;;;6.55;;
51374;SDS011;37465;52.738;4.752;2023-01-04T23:56:36;34.63;;;5.88;;
51374;SDS011;37465;52.738;4.752;2023-01-04T23:59:05;37.45;;;6.47;;
